Latest Weather Observations for Merriwa

IDN60801

Issued at 10:52 am EDT Thursday 23 January 2020 (issued every 10 minutes, with the page automatically refreshed every 10 minutes)

About weather observations | Map of weather stations | Latest weather observations for NSW | Other Formats
Station Details ID: 061287 Name: MERRIWA (ROSCOMMON) Lat: -32.19 Lon: 150.17 Height: 375.0 m
Data from the previous 72 hours. | See also: Recent months at Merriwa
Date/Time
EDT
Temp
°C
App
Temp
°C
Dew
Point
°C
Rel
Hum
%
Delta-T
°C
Wind Press
QNH
hPa
Press
MSL
hPa
Rain since
9am
mm
Dir  Spd
km/h
Gust
km/h
Spd
kts
Gust
kts
23/10:30am 33.8 27.4 14.3 31 12.1 NNW 41 63 22 34 1007.2 1005.2 0.0
23/10:19am 34.0 28.8 14.5 31 12.2 NNW 35 59 19 32 1007.4 1005.4 0.0
23/10:00am 33.2 27.9 15.2 33 11.4 NNW 37 52 20 28 1007.5 1005.5 0.0
23/09:51am 32.8 28.3 14.9 34 11.2 NNW 32 52 17 28 1007.6 1005.6 0.0
23/09:30am 32.4 27.7 15.8 36 10.5 NNW 35 46 19 25 1007.7 1005.7 0.0
23/09:00am 31.8 27.6 16.1 38 10.0 N 33 46 18 25 1008.0 1006.0 0.0
23/08:30am 30.6 26.2 16.6 43 8.9 NNW 35 46 19 25 1008.0 1006.0 0.0
23/08:00am 29.8 26.1 16.9 45 8.2 NNW 32 46 17 25 1008.0 1006.0 0.0
23/07:30am 28.9 25.5 16.8 48 7.7 NNW 30 43 16 23 1007.9 1005.9 0.0
23/07:00am 28.1 26.7 17.0 51 7.1 N 20 26 11 14 1007.6 1005.6 0.0
23/06:30am 27.6 24.6 16.9 52 6.8 N 28 39 15 21 1007.4 1005.4 0.0
23/06:00am 27.4 24.4 16.7 52 6.8 N 28 43 15 23 1007.4 1005.4 0.0
23/05:30am 27.2 24.1 16.5 52 6.7 N 28 37 15 20 1007.3 1005.3 0.0
23/05:00am 27.3 24.6 16.6 52 6.8 N 26 35 14 19 1007.4 1005.4 0.0
23/04:30am 26.9 25.4 16.2 52 6.7 NNW 19 26 10 14 1007.3 1005.3 0.0
23/04:00am 27.4 24.6 16.4 51 6.9 N 26 35 14 19 1007.3 1005.3 0.0
23/03:45am 26.1 26.1 18.0 61 5.2 NNW 15 20 8 11 1007.1 1005.1 0.0
23/03:30am 21.0 19.3 7.6 42 7.0 WNW 6 7 3 4 1007.3 1005.3 0.0
23/03:00am 20.3 19.8 7.7 44 6.6 CALM 0 0 0 0 1007.3 1005.3 0.0
23/02:30am 20.9 18.7 5.3 36 7.8 NE 6 9 3 5 1007.3 1005.3 0.0
23/02:00am 19.2 16.8 7.0 45 6.3 N 9 13 5 7 1007.7 1005.7 0.0
23/01:30am 20.4 18.3 6.7 41 7.1 E 7 9 4 5 1007.6 1005.6 0.0
23/01:00am 21.4 19.1 4.9 34 8.3 ESE 6 7 3 4 1007.8 1005.8 0.0
23/12:30am 22.3 21.5 6.5 36 8.2 CALM 0 0 0 0 1007.8 1005.8 0.0
23/12:00am 23.8 22.4 3.7 27 10.0 CALM 0 0 0 0 1007.9 1005.9 0.0
 
Date/Time
EDT
Temp
°C
App
Temp
°C
Dew
Point
°C
Rel
Hum
%
Delta-T
°C
Wind Press
QNH
hPa
Press
MSL
hPa
Rain since
9am
mm
Dir  Spd
km/h
Gust
km/h
Spd
kts
Gust
kts
22/11:30pm 23.8 21.5 4.7 29 9.7 NNW 6 9 3 5 1007.9 1005.9 0.0
22/11:00pm 23.7 21.3 5.1 30 9.5 N 7 9 4 5 1007.8 1005.8 0.0
22/10:30pm 24.6 23.9 6.8 32 9.4 CALM 0 0 0 0 1007.5 1005.5 0.0
22/10:00pm 26.1 23.9 3.4 23 11.4 SSW 4 7 2 4 1007.4 1005.4 0.0
22/09:30pm 27.7 24.9 2.0 19 12.7 WSW 6 9 3 5 1007.1 1005.1 0.0
22/09:00pm 28.6 25.8 2.0 18 13.3 WNW 6 7 3 4 1006.8 1004.8 0.0
22/08:30pm 29.6 26.1 1.1 16 14.1 NW 9 11 5 6 1006.6 1004.6 0.0
22/08:00pm 31.8 27.0 0.0 13 15.7 NW 15 19 8 10 1006.4 1004.4 0.0
22/07:30pm 34.6 30.7 1.1 12 17.1 WNW 11 15 6 8 1006.2 1004.2 0.0
22/07:00pm 35.8 30.1 -0.5 10 18.2 NW 19 32 10 17 1006.1 1004.1 0.0
22/06:30pm 36.2 31.2 1.1 11 18.1 W 17 26 9 14 1005.9 1004.0 0.0
22/06:00pm 36.7 31.3 1.5 11 18.3 WNW 19 28 10 15 1006.2 1004.2 0.0
22/05:30pm 37.2 30.6 1.8 11 18.5 WNW 26 35 14 19 1006.3 1004.3 0.0
22/05:00pm 37.1 32.9 1.8 11 18.5 WNW 13 20 7 11 1006.6 1004.6 0.0
22/04:30pm 36.7 32.1 1.5 11 18.3 NW 15 26 8 14 1007.1 1005.1 0.0
22/04:00pm 36.4 31.6 2.5 12 17.9 NW 17 35 9 19 1007.6 1005.6 0.0
22/03:30pm 36.5 31.1 2.5 12 17.9 W 20 32 11 17 1007.9 1005.9 0.0
22/03:00pm 35.3 29.8 1.6 12 17.4 WNW 20 39 11 21 1008.5 1006.6 0.0
22/02:30pm 35.2 30.2 3.7 14 16.8 W 19 37 10 20 1009.1 1007.1 0.0
22/02:00pm 34.9 29.1 4.4 15 16.4 WNW 24 33 13 18 1009.6 1007.6 0.0
22/01:30pm 34.2 30.4 3.9 15 16.1 NNW 13 22 7 12 1010.2 1008.2 0.0
22/01:00pm 33.9 31.7 7.8 20 14.8 WSW 9 19 5 10 1010.6 1008.6 0.0
22/12:30pm 33.3 30.8 8.0 21 14.3 NE 11 22 6 12 1011.1 1009.2 0.0
22/12:00pm 31.5 27.4 7.9 23 13.2 WSW 19 30 10 16 1011.7 1009.7 0.0
22/11:30am 30.7 28.2 8.4 25 12.5 NW 11 19 6 10 1012.1 1010.1 0.0
22/11:00am 29.4 29.4 15.1 41 8.9 ESE 9 15 5 8 1012.7 1010.7 0.0
22/10:30am 27.9 28.1 16.8 50 7.0 E 11 17 6 9 1013.0 1011.0 0.0
22/10:00am 26.0 26.6 17.6 60 5.3 ENE 11 17 6 9 1013.1 1011.2 0.0
22/09:30am 24.1 24.4 16.9 64 4.5 E 11 17 6 9 1013.1 1011.2 0.0
22/09:00am 23.1 23.3 17.6 71 3.5 E 13 19 7 10 1013.2 1011.3 0.0
22/08:30am 22.0 22.5 17.4 75 2.9 E 11 17 6 9 1013.3 1011.4 -
22/08:00am 21.1 22.2 18.1 83 1.9 ENE 9 15 5 8 1013.0 1011.0 -
22/07:30am 19.6 21.1 17.6 88 1.2 ENE 6 7 3 4 1012.7 1010.7 -
22/07:00am 17.6 18.6 16.3 92 0.8 NNE 6 7 3 4 1012.4 1010.4 -
22/06:30am 16.3 16.5 14.8 91 0.9 NE 7 11 4 6 1012.2 1010.2 -
22/06:00am 17.2 19.0 15.5 90 1.0 CALM 0 0 0 0 1012.1 1010.1 -
22/05:30am 17.1 18.8 15.3 89 1.1 CALM 0 0 0 0 1011.8 1009.8 -
22/05:00am 17.3 17.8 14.9 86 1.4 NE 6 6 3 3 1011.7 1009.7 -
22/04:30am 17.1 17.3 14.2 83 1.7 NE 6 7 3 4 1011.4 1009.5 -
22/04:00am 17.8 17.5 14.5 81 1.9 NE 9 9 5 5 1011.4 1009.5 -
22/03:30am 18.5 18.3 14.8 79 2.2 NE 9 9 5 5 1011.3 1009.4 -
22/03:00am 18.8 18.5 14.5 76 2.5 NE 9 11 5 6 1011.4 1009.5 0.0
22/02:30am 19.7 19.4 14.3 71 3.2 ENE 9 11 5 6 1011.3 1009.4 -
22/02:00am 19.9 19.6 14.5 71 3.2 ENE 9 13 5 7 1011.3 1009.4 -
22/01:30am 19.9 19.5 14.0 69 3.5 E 9 13 5 7 1011.1 1009.2 -
22/01:00am 20.3 19.7 13.5 65 4.0 E 9 13 5 7 1011.4 1009.5 -
22/12:30am 20.4 18.8 10.2 52 5.6 ENE 9 13 5 7 1011.3 1009.4 -
22/12:00am 21.1 18.9 9.4 47 6.4 ENE 11 24 6 13 1011.1 1009.2 -
 
Date/Time
EDT
Temp
°C
App
Temp
°C
Dew
Point
°C
Rel
Hum
%
Delta-T
°C
Wind Press
QNH
hPa
Press
MSL
hPa
Rain since
9am
mm
Dir  Spd
km/h
Gust
km/h
Spd
kts
Gust
kts
21/11:30pm 21.7 20.5 10.2 48 6.4 ENE 7 11 4 6 1010.8 1008.9 -
21/11:00pm 22.1 22.1 9.9 46 6.7 CALM 0 0 0 0 1010.7 1008.8 -
21/10:30pm 21.9 20.9 11.0 50 6.1 WSW 7 9 4 5 1010.5 1008.5 -
21/10:00pm 22.4 21.5 10.5 47 6.7 WSW 6 7 3 4 1010.4 1008.4 -
21/09:30pm 23.2 21.8 9.6 42 7.5 WSW 7 9 4 5 1010.1 1008.1 -
21/09:00pm 25.7 23.1 7.8 32 9.7 WSW 11 13 6 7 1009.9 1007.9 0.0
21/08:30pm 26.8 24.5 7.3 29 10.5 WSW 9 11 5 6 1009.7 1007.7 -
21/08:00pm 28.5 26.0 6.6 25 11.8 W 9 13 5 7 1009.4 1007.4 -
21/07:30pm 29.7 26.0 6.4 23 12.6 WNW 15 24 8 13 1008.9 1006.9 -
21/07:00pm 30.8 27.2 6.6 22 13.2 W 15 24 8 13 1008.6 1006.7 -
21/06:30pm 31.0 26.2 5.4 20 13.7 WNW 20 30 11 16 1008.3 1006.4 -
21/06:00pm 31.1 26.5 5.5 20 13.8 WNW 19 28 10 15 1008.0 1006.0 -
21/05:30pm 31.5 25.8 5.1 19 14.1 WNW 24 35 13 19 1008.1 1006.1 -
21/05:00pm 31.9 26.8 6.2 20 14.0 WNW 22 35 12 19 1008.1 1006.1 -
21/04:30pm 31.8 26.9 6.8 21 13.8 WNW 22 37 12 20 1008.2 1006.2 -
21/04:00pm 31.7 26.8 6.7 21 13.8 WNW 22 30 12 16 1008.3 1006.4 -
21/03:30pm 31.6 26.0 7.3 22 13.5 NW 26 54 14 29 1008.5 1006.6 -
21/03:00pm 31.3 26.7 8.3 24 13.0 WNW 22 32 12 17 1008.7 1006.8 -
21/02:30pm 30.5 25.6 7.0 23 12.9 NW 22 33 12 18 1009.1 1007.1 -
21/02:00pm 29.8 25.2 8.2 26 12.1 WNW 22 37 12 20 1009.3 1007.3 -
21/01:30pm 30.7 26.3 9.0 26 12.3 WNW 22 35 12 19 1009.6 1007.6 -
21/01:00pm 30.2 24.2 8.6 26 12.2 WNW 30 43 16 23 1009.9 1007.9 -
21/12:30pm 29.1 23.3 9.3 29 11.2 WNW 30 39 16 21 1010.2 1008.2 0.0
21/12:00pm 27.9 22.9 8.2 29 10.9 NW 24 35 13 19 1010.4 1008.4 0.0
21/11:30am 27.9 22.8 9.2 31 10.5 W 26 37 14 20 1010.6 1008.6 0.0
21/11:00am 28.0 23.2 8.8 30 10.7 WNW 24 39 13 21 1010.7 1008.8 0.0
21/10:30am 26.9 23.1 9.7 34 9.7 WNW 20 35 11 19 1010.8 1008.9 0.0
21/10:00am 25.6 22.0 9.8 37 8.9 WNW 19 28 10 15 1010.9 1009.0 0.0
21/09:30am 24.4 21.7 10.3 41 7.9 W 15 22 8 12 1010.8 1008.9 0.0
21/09:00am 23.5 20.4 10.2 43 7.4 W 17 20 9 11 1010.6 1008.6 0.0
21/08:30am 22.5 20.0 9.6 44 7.1 W 13 17 7 9 1010.4 1008.4 0.0
21/08:00am 21.8 18.8 9.3 45 6.8 WNW 15 20 8 11 1010.2 1008.2 0.0
21/07:30am 20.3 17.0 8.0 45 6.5 NW 15 19 8 10 1009.7 1007.7 0.0
21/07:00am 18.8 16.1 9.0 53 5.2 NW 13 17 7 9 1009.3 1007.3 0.0
21/06:30am 17.1 15.1 8.8 58 4.4 WNW 9 11 5 6 1008.6 1006.7 0.0
21/06:00am 17.0 14.3 8.9 59 4.3 NW 13 15 7 8 1008.1 1006.1 0.0
21/05:30am 17.7 14.9 8.6 55 4.8 NW 13 17 7 9 1007.7 1005.7 0.0
21/05:00am 18.4 15.3 8.7 53 5.1 NW 15 19 8 10 1007.3 1005.3 0.0
21/04:30am 18.5 15.4 8.7 53 5.2 NW 15 17 8 9 1007.0 1005.0 0.0
21/04:00am 18.6 15.6 9.4 55 4.9 NW 15 17 8 9 1006.9 1004.9 0.0
21/03:30am 19.0 16.0 9.2 53 5.2 NW 15 19 8 10 1006.9 1004.9 0.0
21/03:00am 19.3 16.4 9.8 54 5.2 NW 15 17 8 9 1007.0 1005.0 0.0
21/02:30am 19.5 16.7 10.0 54 5.2 NW 15 17 8 9 1007.1 1005.1 0.0
21/02:00am 19.9 17.6 10.3 54 5.3 NW 13 17 7 9 1007.1 1005.1 0.0
21/01:30am 20.7 17.7 10.5 52 5.6 NW 17 20 9 11 1007.1 1005.1 0.0
21/01:00am 21.6 18.7 9.8 47 6.5 WNW 15 20 8 11 1007.1 1005.1 0.0
21/12:30am 22.4 18.6 9.9 45 6.9 NNW 20 26 11 14 1006.7 1004.7 0.0
21/12:00am 23.2 20.3 9.6 42 7.5 NNW 15 17 8 9 1006.5 1004.5 0.0
 
Date/Time
EDT
Temp
°C
App
Temp
°C
Dew
Point
°C
Rel
Hum
%
Delta-T
°C
Wind Press
QNH
hPa
Press
MSL
hPa
Rain since
9am
mm
Dir  Spd
km/h
Gust
km/h
Spd
kts
Gust
kts
20/11:30pm 23.0 20.6 10.1 44 7.2 N 13 17 7 9 1006.5 1004.5 0.0
20/11:00pm 22.2 20.8 11.0 49 6.3 N 9 13 5 7 1006.5 1004.5 0.0
20/10:30pm 21.9 20.3 10.1 47 6.5 NNW 9 9 5 5 1006.4 1004.4 0.0
20/10:00pm 22.3 21.2 10.8 48 6.5 WNW 7 9 4 5 1006.2 1004.2 0.0
20/09:30pm 25.0 22.9 8.1 34 9.2 W 9 11 5 6 1005.7 1003.7 0.0
20/09:00pm 25.9 23.4 8.4 33 9.6 W 11 15 6 8 1005.2 1003.2 0.0
20/08:30pm 26.9 22.9 8.4 31 10.2 WSW 19 30 10 16 1004.5 1002.5 0.0
20/08:00pm 27.7 23.6 8.6 30 10.6 WSW 20 32 11 17 1003.9 1001.9 0.0
20/07:30pm 28.8 23.5 8.5 28 11.3 W 26 39 14 21 1003.3 1001.2 0.0
20/07:00pm 29.9 25.0 8.3 26 12.1 W 24 35 13 19 1002.5 1000.5 0.0
20/06:30pm 30.9 25.3 8.6 25 12.6 WSW 28 43 15 23 1001.8 999.8 0.0
20/06:03pm 32.0 26.2 9.5 25 12.9 W 30 48 16 26 1001.2 999.2 0.0
20/06:00pm 32.1 26.5 10.2 26 12.8 W 30 46 16 25 1001.1 999.0 0.0
20/05:52pm 32.5 27.4 10.5 26 12.9 W 28 46 15 25 1001.1 999.0 0.0
20/05:30pm 32.7 25.7 10.1 25 13.2 WNW 37 54 20 29 1001.0 998.9 0.0
20/05:27pm 32.8 26.3 10.2 25 13.2 WNW 35 54 19 29 1000.9 998.8 0.0
20/05:00pm 32.9 25.8 9.7 24 13.5 WNW 37 54 20 29 1000.8 998.7 0.0
20/04:30pm 34.7 28.6 11.8 25 13.8 WNW 35 52 19 28 1000.5 998.4 0.0
20/04:21pm 34.2 27.4 10.7 24 13.9 WNW 37 52 20 28 1000.2 998.2 0.0
20/04:03pm 35.4 24.9 7.5 18 15.8 NW 52 69 28 37 999.9 997.9 0.0
20/04:00pm 35.5 24.7 5.8 16 16.5 NW 52 65 28 35 999.9 997.9 0.0
20/03:30pm 36.4 27.0 5.6 15 17.0 NW 44 72 24 39 999.9 997.9 0.0
20/03:28pm 36.2 26.8 4.5 14 17.2 NW 43 72 23 39 999.9 997.9 0.0
20/03:26pm 36.3 27.5 5.5 15 17.0 NW 41 56 22 30 999.9 997.9 0.0
20/03:09pm 35.9 25.7 7.0 17 16.3 NNW 50 69 27 37 999.9 997.9 0.0
20/03:00pm 35.5 25.4 5.8 16 16.5 NW 48 65 26 35 1000.1 998.1 0.0
20/02:39pm 35.5 26.9 6.7 17 16.1 NW 41 65 22 35 1000.2 998.2 0.0
20/02:30pm 35.5 27.7 8.3 19 15.6 NNW 39 54 21 29 1000.5 998.4 0.0
20/02:00pm 35.0 27.1 7.9 19 15.5 NNW 39 59 21 32 1000.9 998.8 0.0
20/01:46pm 34.9 27.8 7.9 19 15.3 NNW 35 59 19 32 1001.1 999.0 0.0
20/01:30pm 34.9 29.4 12.5 25 13.6 N 33 44 18 24 1001.5 999.5 0.0
20/01:18pm 33.9 28.4 12.3 27 13.1 NNW 33 52 18 28 1001.8 999.8 0.0
20/01:00pm 33.6 28.3 14.1 30 12.1 NNW 35 52 19 28 1002.4 1000.4 0.0
20/12:40pm 33.8 29.3 12.7 27 12.8 NNW 28 50 15 27 1002.8 1000.8 0.0
20/12:30pm 33.2 29.1 13.8 31 12.0 NNW 28 44 15 24 1003.1 1001.1 0.0
20/12:00pm 31.9 27.4 15.0 36 10.6 NNW 32 43 17 23 1003.6 1001.6 0.0
20/11:30am 29.7 30.3 18.5 51 7.3 N 13 26 7 14 1004.2 1002.2 0.0
20/11:00am 27.3 30.9 22.0 73 3.6 SSE 6 9 3 5 1004.8 1002.8 0.0

Other formats

Comma delimited format used in spreadsheet applications
http://www.bom.gov.au/fwo/IDN60801/IDN60801.95754.axf

JavaScript Object Notation format (JSON) in row-major order
http://www.bom.gov.au/fwo/IDN60801/IDN60801.95754.json

Data quality

Most of these data are generated automatically and are frequently updated. Quality checks on data are not normally performed. It is possible for incorrect values to appear. Refer to information at About Latest Weather Observations and please check the disclaimer before using these data.